Terminal Aerodrome Forecast
Issued by NWS

Home | Current Version | Previous Version | Text Only | Print | Product List | Glossary On
Versions: 1 2 3 4 5 6 7 8 9 10 11 12 13 14
061
FTUS46 KMTR 220525
TAFSTS
TAF
KSTS 220525Z 2206/2306 16005KT P6SM SKC
     FM221000 00000KT P6SM SKC
     FM222000 16010KT P6SM SKC
     FM230400 16004KT P6SM SKC=

USA.gov is the U.S. government's official web portal to all federal, state and local government web resources and services.